sensor_id;sensor_type;location;lat;lon;timestamp;temperature;humidity
1347;DHT22;667;48.796;9.480;2023-04-25T00:01:04;12.50;68.90
1347;DHT22;667;48.796;9.480;2023-04-25T00:03:31;12.50;68.20
1347;DHT22;667;48.796;9.480;2023-04-25T00:05:57;12.40;67.90
1347;DHT22;667;48.796;9.480;2023-04-25T00:08:24;12.40;67.80
1347;DHT22;667;48.796;9.480;2023-04-25T00:10:50;12.40;67.60
1347;DHT22;667;48.796;9.480;2023-04-25T00:13:15;12.50;67.80
1347;DHT22;667;48.796;9.480;2023-04-25T00:15:42;12.50;67.90
1347;DHT22;667;48.796;9.480;2023-04-25T00:18:08;12.50;67.70
1347;DHT22;667;48.796;9.480;2023-04-25T00:20:35;12.50;67.50
1347;DHT22;667;48.796;9.480;2023-04-25T00:23:00;12.50;67.10
1347;DHT22;667;48.796;9.480;2023-04-25T00:25:26;12.50;67.00
1347;DHT22;667;48.796;9.480;2023-04-25T00:27:52;12.60;67.30
1347;DHT22;667;48.796;9.480;2023-04-25T00:30:17;12.60;67.70
1347;DHT22;667;48.796;9.480;2023-04-25T00:32:43;12.60;67.90
1347;DHT22;667;48.796;9.480;2023-04-25T00:35:09;12.60;67.80
1347;DHT22;667;48.796;9.480;2023-04-25T00:37:35;12.60;67.70
1347;DHT22;667;48.796;9.480;2023-04-25T00:40:01;12.60;67.80
1347;DHT22;667;48.796;9.480;2023-04-25T00:42:27;12.60;67.80
1347;DHT22;667;48.796;9.480;2023-04-25T00:44:53;12.60;68.00
1347;DHT22;667;48.796;9.480;2023-04-25T00:47:19;12.60;68.30
1347;DHT22;667;48.796;9.480;2023-04-25T00:49:45;12.60;68.30
1347;DHT22;667;48.796;9.480;2023-04-25T00:52:11;12.50;67.90
1347;DHT22;667;48.796;9.480;2023-04-25T00:54:37;12.50;67.80
1347;DHT22;667;48.796;9.480;2023-04-25T00:57:03;12.60;68.10
1347;DHT22;667;48.796;9.480;2023-04-25T00:59:29;12.50;68.50
1347;DHT22;667;48.796;9.480;2023-04-25T01:01:56;12.50;69.20
1347;DHT22;667;48.796;9.480;2023-04-25T01:04:22;12.50;69.70
1347;DHT22;667;48.796;9.480;2023-04-25T01:06:48;12.50;70.10
1347;DHT22;667;48.796;9.480;2023-04-25T01:09:13;12.50;70.40
1347;DHT22;667;48.796;9.480;2023-04-25T01:11:40;12.40;70.70
1347;DHT22;667;48.796;9.480;2023-04-25T01:14:05;12.40;71.10
1347;DHT22;667;48.796;9.480;2023-04-25T01:16:31;12.40;71.50
1347;DHT22;667;48.796;9.480;2023-04-25T01:18:57;12.40;71.70
1347;DHT22;667;48.796;9.480;2023-04-25T01:21:23;12.40;71.80
1347;DHT22;667;48.796;9.480;2023-04-25T01:23:51;12.40;71.80
1347;DHT22;667;48.796;9.480;2023-04-25T01:26:18;12.40;71.80
1347;DHT22;667;48.796;9.480;2023-04-25T01:28:43;12.40;72.00
1347;DHT22;667;48.796;9.480;2023-04-25T01:31:11;12.30;71.90
1347;DHT22;667;48.796;9.480;2023-04-25T01:33:37;12.30;71.80
1347;DHT22;667;48.796;9.480;2023-04-25T01:36:03;12.30;71.20
1347;DHT22;667;48.796;9.480;2023-04-25T01:38:28;12.30;71.00
1347;DHT22;667;48.796;9.480;2023-04-25T01:40:55;12.40;71.30
1347;DHT22;667;48.796;9.480;2023-04-25T01:43:21;12.40;71.80
1347;DHT22;667;48.796;9.480;2023-04-25T01:45:48;12.40;72.40
1347;DHT22;667;48.796;9.480;2023-04-25T01:48:14;12.40;72.60
1347;DHT22;667;48.796;9.480;2023-04-25T01:50:40;12.40;72.80
1347;DHT22;667;48.796;9.480;2023-04-25T01:53:06;12.30;72.80
1347;DHT22;667;48.796;9.480;2023-04-25T01:55:34;12.30;72.90
1347;DHT22;667;48.796;9.480;2023-04-25T01:58:01;12.30;73.20
1347;DHT22;667;48.796;9.480;2023-04-25T02:00:27;12.30;73.20
1347;DHT22;667;48.796;9.480;2023-04-25T02:02:53;12.30;73.20
1347;DHT22;667;48.796;9.480;2023-04-25T02:05:19;12.20;72.30
1347;DHT22;667;48.796;9.480;2023-04-25T02:07:45;12.20;71.40
1347;DHT22;667;48.796;9.480;2023-04-25T02:10:11;12.20;71.10
1347;DHT22;667;48.796;9.480;2023-04-25T02:12:36;12.20;71.00
1347;DHT22;667;48.796;9.480;2023-04-25T02:15:02;12.20;71.00
1347;DHT22;667;48.796;9.480;2023-04-25T02:17:28;12.20;71.20
1347;DHT22;667;48.796;9.480;2023-04-25T02:19:53;12.20;71.40
1347;DHT22;667;48.796;9.480;2023-04-25T02:22:19;12.20;71.20
1347;DHT22;667;48.796;9.480;2023-04-25T02:24:46;12.20;71.00
1347;DHT22;667;48.796;9.480;2023-04-25T02:27:11;12.20;71.00
1347;DHT22;667;48.796;9.480;2023-04-25T02:29:37;12.20;71.20
1347;DHT22;667;48.796;9.480;2023-04-25T02:32:03;12.20;71.10
1347;DHT22;667;48.796;9.480;2023-04-25T02:34:31;12.20;71.30
1347;DHT22;667;48.796;9.480;2023-04-25T02:36:57;12.20;71.40
1347;DHT22;667;48.796;9.480;2023-04-25T02:39:22;12.20;71.50
1347;DHT22;667;48.796;9.480;2023-04-25T02:41:50;12.20;71.50
1347;DHT22;667;48.796;9.480;2023-04-25T02:44:16;12.20;71.30
1347;DHT22;667;48.796;9.480;2023-04-25T02:46:41;12.20;71.10
1347;DHT22;667;48.796;9.480;2023-04-25T02:49:07;12.20;71.00
1347;DHT22;667;48.796;9.480;2023-04-25T02:51:32;12.20;71.00
1347;DHT22;667;48.796;9.480;2023-04-25T02:53:58;12.20;70.90
1347;DHT22;667;48.796;9.480;2023-04-25T02:56:24;12.10;70.60
1347;DHT22;667;48.796;9.480;2023-04-25T02:58:51;12.10;70.70
1347;DHT22;667;48.796;9.480;2023-04-25T03:01:17;12.10;70.90
1347;DHT22;667;48.796;9.480;2023-04-25T03:03:42;12.10;71.00
1347;DHT22;667;48.796;9.480;2023-04-25T03:06:08;12.10;71.00
1347;DHT22;667;48.796;9.480;2023-04-25T03:08:34;12.10;71.00
1347;DHT22;667;48.796;9.480;2023-04-25T03:10:59;12.10;71.00
1347;DHT22;667;48.796;9.480;2023-04-25T03:13:25;12.00;70.90
1347;DHT22;667;48.796;9.480;2023-04-25T03:15:52;12.00;70.80
1347;DHT22;667;48.796;9.480;2023-04-25T03:18:18;12.00;71.00
1347;DHT22;667;48.796;9.480;2023-04-25T03:20:43;12.00;71.30
1347;DHT22;667;48.796;9.480;2023-04-25T03:23:09;12.00;71.60
1347;DHT22;667;48.796;9.480;2023-04-25T03:25:35;12.00;71.80
1347;DHT22;667;48.796;9.480;2023-04-25T03:28:00;12.00;71.70
1347;DHT22;667;48.796;9.480;2023-04-25T03:30:26;12.00;71.30
1347;DHT22;667;48.796;9.480;2023-04-25T03:32:51;11.90;71.00
1347;DHT22;667;48.796;9.480;2023-04-25T03:35:17;11.90;70.90
1347;DHT22;667;48.796;9.480;2023-04-25T03:37:43;11.90;70.80
1347;DHT22;667;48.796;9.480;2023-04-25T03:40:11;12.00;70.90
1347;DHT22;667;48.796;9.480;2023-04-25T03:42:37;12.00;71.00
1347;DHT22;667;48.796;9.480;2023-04-25T03:45:03;12.00;71.10
1347;DHT22;667;48.796;9.480;2023-04-25T03:47:29;12.00;71.00
1347;DHT22;667;48.796;9.480;2023-04-25T03:49:57;12.00;71.00
1347;DHT22;667;48.796;9.480;2023-04-25T03:52:25;12.00;70.90
1347;DHT22;667;48.796;9.480;2023-04-25T03:54:51;12.00;70.50
1347;DHT22;667;48.796;9.480;2023-04-25T03:57:16;12.00;70.40
1347;DHT22;667;48.796;9.480;2023-04-25T03:59:42;12.00;70.30
1347;DHT22;667;48.796;9.480;2023-04-25T04:02:07;12.00;70.20
1347;DHT22;667;48.796;9.480;2023-04-25T04:04:39;12.00;70.20
1347;DHT22;667;48.796;9.480;2023-04-25T04:07:04;11.90;70.50
1347;DHT22;667;48.796;9.480;2023-04-25T04:09:30;11.90;70.90
1347;DHT22;667;48.796;9.480;2023-04-25T04:11:55;12.00;71.70
1347;DHT22;667;48.796;9.480;2023-04-25T04:14:21;12.00;71.70
1347;DHT22;667;48.796;9.480;2023-04-25T04:16:46;12.00;71.90
1347;DHT22;667;48.796;9.480;2023-04-25T04:19:12;12.00;72.40
1347;DHT22;667;48.796;9.480;2023-04-25T04:21:38;12.00;72.70
1347;DHT22;667;48.796;9.480;2023-04-25T04:24:03;12.00;72.70
1347;DHT22;667;48.796;9.480;2023-04-25T04:26:29;12.10;72.80
1347;DHT22;667;48.796;9.480;2023-04-25T04:28:57;12.10;72.90
1347;DHT22;667;48.796;9.480;2023-04-25T04:31:24;12.10;72.70
1347;DHT22;667;48.796;9.480;2023-04-25T04:33:56;12.10;72.60
1347;DHT22;667;48.796;9.480;2023-04-25T04:36:21;12.10;72.80
1347;DHT22;667;48.796;9.480;2023-04-25T04:38:48;12.10;72.90
1347;DHT22;667;48.796;9.480;2023-04-25T04:41:14;12.10;72.80
1347;DHT22;667;48.796;9.480;2023-04-25T04:43:39;12.10;72.80
1347;DHT22;667;48.796;9.480;2023-04-25T04:46:05;12.10;72.90
1347;DHT22;667;48.796;9.480;2023-04-25T04:48:32;12.10;72.40
1347;DHT22;667;48.796;9.480;2023-04-25T04:51:00;12.10;71.70
1347;DHT22;667;48.796;9.480;2023-04-25T04:53:26;12.10;71.80
1347;DHT22;667;48.796;9.480;2023-04-25T04:55:52;12.00;71.80
1347;DHT22;667;48.796;9.480;2023-04-25T04:58:18;12.00;72.00
1347;DHT22;667;48.796;9.480;2023-04-25T05:00:44;12.10;72.10
1347;DHT22;667;48.796;9.480;2023-04-25T05:03:10;12.10;72.00
1347;DHT22;667;48.796;9.480;2023-04-25T05:05:36;12.10;72.00
1347;DHT22;667;48.796;9.480;2023-04-25T05:08:05;12.10;71.50
1347;DHT22;667;48.796;9.480;2023-04-25T05:10:31;12.10;71.10
1347;DHT22;667;48.796;9.480;2023-04-25T05:12:57;12.10;71.10
1347;DHT22;667;48.796;9.480;2023-04-25T05:15:22;12.10;71.00
1347;DHT22;667;48.796;9.480;2023-04-25T05:17:48;12.20;71.40
1347;DHT22;667;48.796;9.480;2023-04-25T05:20:13;12.20;71.00
1347;DHT22;667;48.796;9.480;2023-04-25T05:22:39;12.20;70.70
1347;DHT22;667;48.796;9.480;2023-04-25T05:25:07;12.20;70.40
1347;DHT22;667;48.796;9.480;2023-04-25T05:27:33;12.20;70.20
1347;DHT22;667;48.796;9.480;2023-04-25T05:29:58;12.20;70.40
1347;DHT22;667;48.796;9.480;2023-04-25T05:32:24;12.20;70.50
1347;DHT22;667;48.796;9.480;2023-04-25T05:34:50;12.20;70.80
1347;DHT22;667;48.796;9.480;2023-04-25T05:37:17;12.20;71.10
1347;DHT22;667;48.796;9.480;2023-04-25T05:39:42;12.30;71.30
1347;DHT22;667;48.796;9.480;2023-04-25T05:42:08;12.30;72.10
1347;DHT22;667;48.796;9.480;2023-04-25T05:44:33;12.40;71.50
1347;DHT22;667;48.796;9.480;2023-04-25T05:46:59;12.40;71.40
1347;DHT22;667;48.796;9.480;2023-04-25T05:49:27;12.50;71.60
1347;DHT22;667;48.796;9.480;2023-04-25T05:51:53;12.50;71.60
1347;DHT22;667;48.796;9.480;2023-04-25T05:54:18;12.60;71.60
1347;DHT22;667;48.796;9.480;2023-04-25T05:56:44;12.60;71.20
1347;DHT22;667;48.796;9.480;2023-04-25T05:59:09;12.70;70.70
1347;DHT22;667;48.796;9.480;2023-04-25T06:01:35;12.70;70.10
1347;DHT22;667;48.796;9.480;2023-04-25T06:04:01;12.70;69.30
1347;DHT22;667;48.796;9.480;2023-04-25T06:06:26;12.70;68.50
1347;DHT22;667;48.796;9.480;2023-04-25T06:08:55;12.70;68.30
1347;DHT22;667;48.796;9.480;2023-04-25T06:11:23;12.70;68.40
1347;DHT22;667;48.796;9.480;2023-04-25T06:13:49;12.70;68.20
1347;DHT22;667;48.796;9.480;2023-04-25T06:16:14;12.70;67.70
1347;DHT22;667;48.796;9.480;2023-04-25T06:18:40;12.70;68.20
1347;DHT22;667;48.796;9.480;2023-04-25T06:21:06;12.60;68.30
1347;DHT22;667;48.796;9.480;2023-04-25T06:23:32;12.60;68.70
1347;DHT22;667;48.796;9.480;2023-04-25T06:25:57;12.60;68.80
1347;DHT22;667;48.796;9.480;2023-04-25T06:28:23;12.60;69.60
1347;DHT22;667;48.796;9.480;2023-04-25T06:30:50;12.50;69.70
1347;DHT22;667;48.796;9.480;2023-04-25T06:33:15;12.50;70.20
1347;DHT22;667;48.796;9.480;2023-04-25T06:35:41;12.50;70.60
1347;DHT22;667;48.796;9.480;2023-04-25T06:38:06;12.50;70.90
1347;DHT22;667;48.796;9.480;2023-04-25T06:40:32;12.50;71.20
1347;DHT22;667;48.796;9.480;2023-04-25T06:42:57;12.50;71.40
1347;DHT22;667;48.796;9.480;2023-04-25T06:45:23;12.50;71.30
1347;DHT22;667;48.796;9.480;2023-04-25T06:47:48;12.60;71.30
1347;DHT22;667;48.796;9.480;2023-04-25T06:50:14;12.60;71.50
1347;DHT22;667;48.796;9.480;2023-04-25T06:52:40;12.60;71.50
1347;DHT22;667;48.796;9.480;2023-04-25T06:55:06;12.70;71.60
1347;DHT22;667;48.796;9.480;2023-04-25T06:57:31;12.80;71.40
1347;DHT22;667;48.796;9.480;2023-04-25T06:59:57;12.80;70.70
1347;DHT22;667;48.796;9.480;2023-04-25T07:02:22;12.90;70.40
1347;DHT22;667;48.796;9.480;2023-04-25T07:04:48;13.00;70.30
1347;DHT22;667;48.796;9.480;2023-04-25T07:07:14;13.00;70.10
1347;DHT22;667;48.796;9.480;2023-04-25T07:09:39;13.10;70.00
1347;DHT22;667;48.796;9.480;2023-04-25T07:12:05;13.20;69.60
1347;DHT22;667;48.796;9.480;2023-04-25T07:14:30;13.20;69.90
1347;DHT22;667;48.796;9.480;2023-04-25T07:16:56;13.30;68.90
1347;DHT22;667;48.796;9.480;2023-04-25T07:19:22;13.20;68.30
1347;DHT22;667;48.796;9.480;2023-04-25T07:21:49;13.30;68.20
1347;DHT22;667;48.796;9.480;2023-04-25T07:24:15;13.30;68.70
1347;DHT22;667;48.796;9.480;2023-04-25T07:26:40;13.30;67.90
1347;DHT22;667;48.796;9.480;2023-04-25T07:29:06;13.30;67.90
1347;DHT22;667;48.796;9.480;2023-04-25T07:31:31;13.40;68.00
1347;DHT22;667;48.796;9.480;2023-04-25T07:33:57;13.40;67.60
1347;DHT22;667;48.796;9.480;2023-04-25T07:36:22;13.40;67.60
1347;DHT22;667;48.796;9.480;2023-04-25T07:38:48;13.30;67.30
1347;DHT22;667;48.796;9.480;2023-04-25T07:41:13;13.30;67.30
1347;DHT22;667;48.796;9.480;2023-04-25T07:43:39;13.30;67.20
1347;DHT22;667;48.796;9.480;2023-04-25T07:46:05;13.30;67.00
1347;DHT22;667;48.796;9.480;2023-04-25T07:48:30;13.30;67.30
1347;DHT22;667;48.796;9.480;2023-04-25T07:50:56;13.30;67.60
1347;DHT22;667;48.796;9.480;2023-04-25T07:53:21;13.20;67.70
1347;DHT22;667;48.796;9.480;2023-04-25T07:55:47;13.30;67.60
1347;DHT22;667;48.796;9.480;2023-04-25T07:58:12;13.20;67.50
1347;DHT22;667;48.796;9.480;2023-04-25T08:00:39;13.20;67.80
1347;DHT22;667;48.796;9.480;2023-04-25T08:03:04;13.10;68.50
1347;DHT22;667;48.796;9.480;2023-04-25T08:05:30;13.10;69.20
1347;DHT22;667;48.796;9.480;2023-04-25T08:07:56;13.10;70.10
1347;DHT22;667;48.796;9.480;2023-04-25T08:10:22;13.00;70.70
1347;DHT22;667;48.796;9.480;2023-04-25T08:12:48;13.00;70.80
1347;DHT22;667;48.796;9.480;2023-04-25T08:15:14;12.90;71.20
1347;DHT22;667;48.796;9.480;2023-04-25T08:17:40;12.90;71.50
1347;DHT22;667;48.796;9.480;2023-04-25T08:20:06;12.80;72.20
1347;DHT22;667;48.796;9.480;2023-04-25T08:22:32;12.80;73.30
1347;DHT22;667;48.796;9.480;2023-04-25T08:24:59;12.80;73.70
1347;DHT22;667;48.796;9.480;2023-04-25T08:27:24;12.80;73.70
1347;DHT22;667;48.796;9.480;2023-04-25T08:29:50;12.80;73.40
1347;DHT22;667;48.796;9.480;2023-04-25T08:32:16;12.80;74.20
1347;DHT22;667;48.796;9.480;2023-04-25T08:34:42;12.80;74.10
1347;DHT22;667;48.796;9.480;2023-04-25T08:37:09;12.80;74.80
1347;DHT22;667;48.796;9.480;2023-04-25T08:39:36;12.80;75.00
1347;DHT22;667;48.796;9.480;2023-04-25T08:42:05;12.80;75.20
1347;DHT22;667;48.796;9.480;2023-04-25T08:44:34;12.90;75.40
1347;DHT22;667;48.796;9.480;2023-04-25T08:47:04;12.80;75.30
1347;DHT22;667;48.796;9.480;2023-04-25T08:49:33;12.90;75.60
1347;DHT22;667;48.796;9.480;2023-04-25T08:52:00;12.80;75.00
1347;DHT22;667;48.796;9.480;2023-04-25T08:54:27;12.80;75.10
1347;DHT22;667;48.796;9.480;2023-04-25T08:56:54;12.80;75.60
1347;DHT22;667;48.796;9.480;2023-04-25T08:59:23;12.80;75.90
1347;DHT22;667;48.796;9.480;2023-04-25T09:01:49;12.80;75.70
1347;DHT22;667;48.796;9.480;2023-04-25T09:04:15;12.80;75.30
1347;DHT22;667;48.796;9.480;2023-04-25T09:06:41;12.70;75.70
1347;DHT22;667;48.796;9.480;2023-04-25T09:09:08;12.70;75.80
1347;DHT22;667;48.796;9.480;2023-04-25T09:11:36;12.70;76.00
1347;DHT22;667;48.796;9.480;2023-04-25T09:14:16;12.60;76.10
1347;DHT22;667;48.796;9.480;2023-04-25T09:16:59;12.60;76.20
1347;DHT22;667;48.796;9.480;2023-04-25T09:19:33;12.60;76.30
1347;DHT22;667;48.796;9.480;2023-04-25T09:22:02;12.50;75.90
1347;DHT22;667;48.796;9.480;2023-04-25T09:24:42;12.50;76.00
1347;DHT22;667;48.796;9.480;2023-04-25T09:27:11;12.50;76.30
1347;DHT22;667;48.796;9.480;2023-04-25T09:29:39;12.40;76.00
1347;DHT22;667;48.796;9.480;2023-04-25T09:32:18;12.40;75.70
1347;DHT22;667;48.796;9.480;2023-04-25T09:34:50;12.40;75.70
1347;DHT22;667;48.796;9.480;2023-04-25T09:37:18;12.50;76.00
1347;DHT22;667;48.796;9.480;2023-04-25T09:39:55;12.50;75.70
1347;DHT22;667;48.796;9.480;2023-04-25T09:42:25;12.40;74.90
1347;DHT22;667;48.796;9.480;2023-04-25T09:44:53;12.40;75.40
1347;DHT22;667;48.796;9.480;2023-04-25T09:47:19;12.40;76.30
1347;DHT22;667;48.796;9.480;2023-04-25T09:49:47;12.50;77.00
1347;DHT22;667;48.796;9.480;2023-04-25T09:52:15;12.50;77.10
1347;DHT22;667;48.796;9.480;2023-04-25T09:54:41;12.50;77.00
1347;DHT22;667;48.796;9.480;2023-04-25T09:57:19;12.50;76.70
1347;DHT22;667;48.796;9.480;2023-04-25T09:59:50;12.50;76.40
1347;DHT22;667;48.796;9.480;2023-04-25T10:02:18;12.50;76.40
1347;DHT22;667;48.796;9.480;2023-04-25T10:04:52;12.60;76.50
1347;DHT22;667;48.796;9.480;2023-04-25T10:07:24;12.60;76.50
1347;DHT22;667;48.796;9.480;2023-04-25T10:10:01;12.60;76.60
1347;DHT22;667;48.796;9.480;2023-04-25T10:12:28;12.60;77.10
1347;DHT22;667;48.796;9.480;2023-04-25T10:14:54;12.60;77.40
1347;DHT22;667;48.796;9.480;2023-04-25T10:17:20;12.70;77.80
1347;DHT22;667;48.796;9.480;2023-04-25T10:19:47;12.70;78.00
1347;DHT22;667;48.796;9.480;2023-04-25T10:22:18;12.70;77.90
1347;DHT22;667;48.796;9.480;2023-04-25T10:24:46;12.70;77.80
1347;DHT22;667;48.796;9.480;2023-04-25T10:27:12;12.60;77.20
1347;DHT22;667;48.796;9.480;2023-04-25T10:29:38;12.70;77.10
1347;DHT22;667;48.796;9.480;2023-04-25T10:32:04;12.70;76.90
1347;DHT22;667;48.796;9.480;2023-04-25T10:34:40;12.70;77.00
1347;DHT22;667;48.796;9.480;2023-04-25T10:37:09;12.70;76.70
1347;DHT22;667;48.796;9.480;2023-04-25T10:39:35;12.60;76.60
1347;DHT22;667;48.796;9.480;2023-04-25T10:42:02;12.60;76.70
1347;DHT22;667;48.796;9.480;2023-04-25T10:44:29;12.60;76.50
1347;DHT22;667;48.796;9.480;2023-04-25T10:46:59;12.60;76.50
1347;DHT22;667;48.796;9.480;2023-04-25T10:49:30;12.60;76.50
1347;DHT22;667;48.796;9.480;2023-04-25T10:52:19;12.60;76.20
1347;DHT22;667;48.796;9.480;2023-04-25T10:54:57;12.60;76.30
1347;DHT22;667;48.796;9.480;2023-04-25T11:00:14;12.50;76.20
1347;DHT22;667;48.796;9.480;2023-04-25T11:02:48;12.50;75.90
1347;DHT22;667;48.796;9.480;2023-04-25T11:05:21;12.40;75.70
1347;DHT22;667;48.796;9.480;2023-04-25T11:07:51;12.40;75.50
1347;DHT22;667;48.796;9.480;2023-04-25T11:10:18;12.30;75.40
1347;DHT22;667;48.796;9.480;2023-04-25T11:12:45;12.20;75.40
1347;DHT22;667;48.796;9.480;2023-04-25T11:15:11;12.10;75.00
1347;DHT22;667;48.796;9.480;2023-04-25T11:17:38;11.90;74.20
1347;DHT22;667;48.796;9.480;2023-04-25T11:20:07;11.90;73.90
1347;DHT22;667;48.796;9.480;2023-04-25T11:22:37;11.80;73.40
1347;DHT22;667;48.796;9.480;2023-04-25T11:25:08;11.80;73.90
1347;DHT22;667;48.796;9.480;2023-04-25T11:27:33;11.70;73.30
1347;DHT22;667;48.796;9.480;2023-04-25T11:30:13;11.70;73.30
1347;DHT22;667;48.796;9.480;2023-04-25T11:32:40;11.70;73.60
1347;DHT22;667;48.796;9.480;2023-04-25T11:35:06;11.70;74.00
1347;DHT22;667;48.796;9.480;2023-04-25T11:37:32;11.70;74.10
1347;DHT22;667;48.796;9.480;2023-04-25T11:39:59;11.70;74.00
1347;DHT22;667;48.796;9.480;2023-04-25T11:42:25;11.70;74.10
1347;DHT22;667;48.796;9.480;2023-04-25T11:44:51;11.70;74.40
1347;DHT22;667;48.796;9.480;2023-04-25T11:47:17;11.70;74.00
1347;DHT22;667;48.796;9.480;2023-04-25T11:49:42;11.70;73.90
1347;DHT22;667;48.796;9.480;2023-04-25T11:52:08;11.70;74.00
1347;DHT22;667;48.796;9.480;2023-04-25T11:54:37;11.70;73.70
1347;DHT22;667;48.796;9.480;2023-04-25T11:57:03;11.70;74.10
1347;DHT22;667;48.796;9.480;2023-04-25T11:59:29;11.70;74.20
1347;DHT22;667;48.796;9.480;2023-04-25T12:01:55;11.70;74.00
1347;DHT22;667;48.796;9.480;2023-04-25T12:04:24;11.70;74.30
1347;DHT22;667;48.796;9.480;2023-04-25T12:06:52;11.60;74.00
1347;DHT22;667;48.796;9.480;2023-04-25T12:09:20;11.70;74.40
1347;DHT22;667;48.796;9.480;2023-04-25T12:11:57;11.60;74.80
1347;DHT22;667;48.796;9.480;2023-04-25T12:14:34;11.60;74.80
1347;DHT22;667;48.796;9.480;2023-04-25T12:17:01;11.60;74.70
1347;DHT22;667;48.796;9.480;2023-04-25T12:19:36;11.70;74.80
1347;DHT22;667;48.796;9.480;2023-04-25T12:22:02;11.70;74.60
1347;DHT22;667;48.796;9.480;2023-04-25T12:24:34;11.80;74.80
1347;DHT22;667;48.796;9.480;2023-04-25T12:27:04;11.80;75.50
1347;DHT22;667;48.796;9.480;2023-04-25T12:29:32;11.80;76.20
1347;DHT22;667;48.796;9.480;2023-04-25T12:31:58;11.90;76.80
1347;DHT22;667;48.796;9.480;2023-04-25T12:34:25;12.00;77.00
1347;DHT22;667;48.796;9.480;2023-04-25T12:36:51;12.00;76.70
1347;DHT22;667;48.796;9.480;2023-04-25T12:39:22;12.10;76.10
1347;DHT22;667;48.796;9.480;2023-04-25T12:41:49;12.20;76.10
1347;DHT22;667;48.796;9.480;2023-04-25T12:44:15;12.30;76.50
1347;DHT22;667;48.796;9.480;2023-04-25T12:46:41;12.40;76.40
1347;DHT22;667;48.796;9.480;2023-04-25T12:49:07;12.40;76.10
1347;DHT22;667;48.796;9.480;2023-04-25T12:51:36;12.50;75.90
1347;DHT22;667;48.796;9.480;2023-04-25T12:54:03;12.50;75.40
1347;DHT22;667;48.796;9.480;2023-04-25T12:56:30;12.60;75.30
1347;DHT22;667;48.796;9.480;2023-04-25T12:58:56;12.50;74.70
1347;DHT22;667;48.796;9.480;2023-04-25T13:01:23;12.60;75.00
1347;DHT22;667;48.796;9.480;2023-04-25T13:03:49;12.60;75.20
1347;DHT22;667;48.796;9.480;2023-04-25T13:06:15;12.50;75.30
1347;DHT22;667;48.796;9.480;2023-04-25T13:08:41;12.60;75.70
1347;DHT22;667;48.796;9.480;2023-04-25T13:11:08;12.60;76.10
1347;DHT22;667;48.796;9.480;2023-04-25T13:13:33;12.60;76.40
1347;DHT22;667;48.796;9.480;2023-04-25T13:16:03;12.60;76.30
1347;DHT22;667;48.796;9.480;2023-04-25T13:18:30;12.60;76.30
1347;DHT22;667;48.796;9.480;2023-04-25T13:20:56;12.70;76.50
1347;DHT22;667;48.796;9.480;2023-04-25T13:23:22;12.70;75.80
1347;DHT22;667;48.796;9.480;2023-04-25T13:25:48;12.70;75.80
1347;DHT22;667;48.796;9.480;2023-04-25T13:28:14;12.80;76.10
1347;DHT22;667;48.796;9.480;2023-04-25T13:30:40;12.80;75.60
1347;DHT22;667;48.796;9.480;2023-04-25T13:33:05;12.90;75.40
1347;DHT22;667;48.796;9.480;2023-04-25T13:35:32;13.00;75.80
1347;DHT22;667;48.796;9.480;2023-04-25T13:37:58;13.20;76.20
1347;DHT22;667;48.796;9.480;2023-04-25T13:40:24;13.30;75.70
1347;DHT22;667;48.796;9.480;2023-04-25T13:42:50;13.40;74.20
1347;DHT22;667;48.796;9.480;2023-04-25T13:45:16;13.40;74.10
1347;DHT22;667;48.796;9.480;2023-04-25T13:47:42;13.50;74.00
1347;DHT22;667;48.796;9.480;2023-04-25T13:50:08;13.50;73.90
1347;DHT22;667;48.796;9.480;2023-04-25T13:52:34;13.50;73.70
1347;DHT22;667;48.796;9.480;2023-04-25T13:54:59;13.50;73.30
1347;DHT22;667;48.796;9.480;2023-04-25T13:57:26;13.50;73.30
1347;DHT22;667;48.796;9.480;2023-04-25T13:59:51;13.60;73.80
1347;DHT22;667;48.796;9.480;2023-04-25T14:02:18;13.60;73.20
1347;DHT22;667;48.796;9.480;2023-04-25T14:04:43;13.60;72.40
1347;DHT22;667;48.796;9.480;2023-04-25T14:07:09;13.70;72.50
1347;DHT22;667;48.796;9.480;2023-04-25T14:09:36;13.80;72.30
1347;DHT22;667;48.796;9.480;2023-04-25T14:12:02;13.70;71.80
1347;DHT22;667;48.796;9.480;2023-04-25T14:14:27;13.70;72.00
1347;DHT22;667;48.796;9.480;2023-04-25T14:16:53;13.60;71.00
1347;DHT22;667;48.796;9.480;2023-04-25T14:19:20;13.60;71.00
1347;DHT22;667;48.796;9.480;2023-04-25T14:21:46;13.50;70.70
1347;DHT22;667;48.796;9.480;2023-04-25T14:24:13;13.40;70.60
1347;DHT22;667;48.796;9.480;2023-04-25T14:26:39;13.40;71.30
1347;DHT22;667;48.796;9.480;2023-04-25T14:29:06;13.40;71.90
1347;DHT22;667;48.796;9.480;2023-04-25T14:31:32;13.50;71.90
1347;DHT22;667;48.796;9.480;2023-04-25T14:33:58;13.50;72.10
1347;DHT22;667;48.796;9.480;2023-04-25T14:36:24;13.50;72.20
1347;DHT22;667;48.796;9.480;2023-04-25T14:38:51;13.50;72.00
1347;DHT22;667;48.796;9.480;2023-04-25T14:41:17;13.50;71.80
1347;DHT22;667;48.796;9.480;2023-04-25T14:43:42;13.40;71.50
1347;DHT22;667;48.796;9.480;2023-04-25T14:46:08;13.50;71.60
1347;DHT22;667;48.796;9.480;2023-04-25T14:48:34;13.50;71.70
1347;DHT22;667;48.796;9.480;2023-04-25T14:51:00;13.50;71.70
1347;DHT22;667;48.796;9.480;2023-04-25T14:53:26;13.50;71.60
1347;DHT22;667;48.796;9.480;2023-04-25T14:55:52;13.50;71.70
1347;DHT22;667;48.796;9.480;2023-04-25T14:58:18;13.40;71.60
1347;DHT22;667;48.796;9.480;2023-04-25T15:00:43;13.40;71.70
1347;DHT22;667;48.796;9.480;2023-04-25T15:03:10;13.40;71.90
1347;DHT22;667;48.796;9.480;2023-04-25T15:05:38;13.50;72.20
1347;DHT22;667;48.796;9.480;2023-04-25T15:08:04;13.60;72.40
1347;DHT22;667;48.796;9.480;2023-04-25T15:10:29;13.60;72.30
1347;DHT22;667;48.796;9.480;2023-04-25T15:12:55;13.60;72.00
1347;DHT22;667;48.796;9.480;2023-04-25T15:15:20;13.60;71.70
1347;DHT22;667;48.796;9.480;2023-04-25T15:17:47;13.70;70.60
1347;DHT22;667;48.796;9.480;2023-04-25T15:20:13;13.70;70.50
1347;DHT22;667;48.796;9.480;2023-04-25T15:22:40;13.60;70.30
1347;DHT22;667;48.796;9.480;2023-04-25T15:25:08;13.70;70.00
1347;DHT22;667;48.796;9.480;2023-04-25T15:27:38;13.70;69.30
1347;DHT22;667;48.796;9.480;2023-04-25T15:30:10;13.60;69.40
1347;DHT22;667;48.796;9.480;2023-04-25T15:32:45;13.60;69.40
1347;DHT22;667;48.796;9.480;2023-04-25T15:35:11;13.70;69.50
1347;DHT22;667;48.796;9.480;2023-04-25T15:37:37;13.70;69.30
1347;DHT22;667;48.796;9.480;2023-04-25T15:40:08;13.70;69.30
1347;DHT22;667;48.796;9.480;2023-04-25T15:42:46;13.70;69.60
1347;DHT22;667;48.796;9.480;2023-04-25T15:45:13;13.80;69.50
1347;DHT22;667;48.796;9.480;2023-04-25T15:47:39;13.80;69.20
1347;DHT22;667;48.796;9.480;2023-04-25T15:50:06;13.80;69.00
1347;DHT22;667;48.796;9.480;2023-04-25T15:52:33;13.80;68.60
1347;DHT22;667;48.796;9.480;2023-04-25T15:54:59;13.70;68.40
1347;DHT22;667;48.796;9.480;2023-04-25T15:57:26;13.70;67.80
1347;DHT22;667;48.796;9.480;2023-04-25T15:59:51;13.70;67.70
1347;DHT22;667;48.796;9.480;2023-04-25T16:02:17;13.70;67.20
1347;DHT22;667;48.796;9.480;2023-04-25T16:04:44;13.70;66.30
1347;DHT22;667;48.796;9.480;2023-04-25T16:07:10;13.70;66.40
1347;DHT22;667;48.796;9.480;2023-04-25T16:09:36;13.70;66.50
1347;DHT22;667;48.796;9.480;2023-04-25T16:12:02;13.80;66.50
1347;DHT22;667;48.796;9.480;2023-04-25T16:14:28;13.80;66.60
1347;DHT22;667;48.796;9.480;2023-04-25T16:16:55;13.80;66.10